Time;durP1;ratioP1;P1;durP2;ratioP2;P2;SDS_P1;SDS_P2;PMS_P1;PMS_P2;Temp;Humidity;BMP_temperature;BMP_pressure;BME280_temperature;BME280_humidity;BME280_pressure;Samples;Min_cycle;Max_cycle;Signal;HPM_P1;HPM_P2
2021/07/19 00:00:44;;;;;;;14.93;11.98;;;;;;;26.22;63.88;98867.97;3512321;28;20044;-72
2021/07/19 00:02:26;;;;;;;15.50;10.47;;;;;;;26.22;63.64;98876.16;3512348;28;20043;-72
2021/07/19 00:04:06;;;;;;;17.65;11.27;;;;;;;26.18;63.64;98869.75;3512405;28;20274;-72
2021/07/19 00:05:47;;;;;;;17.50;12.10;;;;;;;26.15;63.30;98868.44;3512380;28;20043;-72
2021/07/19 00:07:28;;;;;;;11.37;10.17;;;;;;;26.11;63.81;98868.25;3512194;28;20040;-74
2021/07/19 00:09:12;;;;;;;18.93;12.20;;;;;;;26.07;63.49;98870.03;3496899;28;20048;-73
2021/07/19 00:10:52;;;;;;;13.93;10.90;;;;;;;26.04;64.11;98862.44;3509854;28;20028;-72
2021/07/19 00:12:33;;;;;;;15.00;11.53;;;;;;;26.03;63.83;98873.72;3497496;28;20037;-72
2021/07/19 00:14:14;;;;;;;13.98;10.40;;;;;;;26.05;63.70;98875.00;3509284;28;20044;-72
2021/07/19 00:15:55;;;;;;;15.07;10.60;;;;;;;26.06;63.68;98876.59;3511952;28;20552;-72
2021/07/19 00:17:35;;;;;;;13.77;10.63;;;;;;;26.08;63.25;98874.38;3512290;28;20043;-72
2021/07/19 00:19:16;;;;;;;16.17;10.80;;;;;;;26.10;63.51;98872.13;3512197;28;20044;-72
2021/07/19 00:20:58;;;;;;;14.27;10.93;;;;;;;26.13;63.10;98869.88;3497134;28;20041;-73
2021/07/19 00:22:39;;;;;;;11.05;9.40;;;;;;;26.14;62.83;98860.56;3509261;28;20036;-72
2021/07/19 00:24:20;;;;;;;;;;;;;;;26.17;62.64;98874.38;3497695;28;20071;-73
2021/07/19 00:26:01;;;;;;;16.50;9.73;;;;;;;26.13;62.80;98875.34;3508977;28;19912;-73
2021/07/19 00:27:43;;;;;;;19.90;12.17;;;;;;;26.10;63.28;98869.41;3496971;28;20399;-73
2021/07/19 00:29:32;;;;;;;14.68;10.25;;;;;;;26.11;62.93;98878.38;3510265;28;20123;-72
2021/07/19 00:31:18;;;;;;;14.98;9.93;;;;;;;26.12;63.11;98869.06;3511741;28;20494;-71
2021/07/19 00:33:13;;;;;;;16.08;11.27;;;;;;;26.11;63.39;98873.72;3511754;28;20040;-72
2021/07/19 00:34:54;;;;;;;14.48;9.90;;;;;;;26.10;63.25;98866.66;3511620;28;20063;-72
2021/07/19 00:36:40;;;;;;;14.20;10.10;;;;;;;26.07;63.45;98866.47;3511832;28;20040;-71
2021/07/19 00:38:21;;;;;;;11.93;9.57;;;;;;;26.03;63.64;98862.78;3511701;28;20055;-75
2021/07/19 00:40:11;;;;;;;12.73;10.53;;;;;;;26.03;63.56;98866.31;3512025;28;20032;-73
2021/07/19 00:41:52;;;;;;;10.90;9.73;;;;;;;26.00;63.33;98866.94;3496929;28;20055;-70
2021/07/19 00:43:33;;;;;;;13.07;9.13;;;;;;;25.97;63.54;98862.13;3494047;28;20033;-71
2021/07/19 00:45:24;;;;;;;13.23;9.80;;;;;;;26.00;63.50;98857.97;3508617;28;20039;-74
2021/07/19 00:47:05;;;;;;;16.63;10.32;;;;;;;25.98;63.15;98857.47;3496840;28;20042;-71
2021/07/19 00:48:47;;;;;;;14.10;10.23;;;;;;;25.97;63.54;98873.06;3509074;28;20499;-72
2021/07/19 00:50:29;;;;;;;11.13;9.68;;;;;;;25.97;63.62;98861.31;3496671;28;20072;-72
2021/07/19 00:52:11;;;;;;;14.07;9.52;;;;;;;25.97;63.19;98858.56;3494329;28;20056;-71
2021/07/19 00:53:52;;;;;;;11.43;9.02;;;;;;;25.98;63.04;98863.72;3508456;28;20399;-71
2021/07/19 00:55:41;;;;;;;;;;;;;;;26.02;62.90;98861.16;3497083;28;20062;-72
2021/07/19 00:57:23;;;;;;;12.35;8.55;;;;;;;26.00;63.22;98855.22;3494846;28;19924;-72
2021/07/19 00:59:06;;;;;;;11.15;8.77;;;;;;;26.00;63.22;98856.03;3494296;28;20044;-72
2021/07/19 01:00:50;;;;;;;13.38;9.60;;;;;;;26.00;62.90;98850.56;3480400;28;20072;-72
2021/07/19 01:02:34;;;;;;;15.05;9.32;;;;;;;26.00;63.13;98849.78;3478670;28;20037;-71
2021/07/19 01:04:18;;;;;;;16.17;10.18;;;;;;;25.98;63.01;98847.34;3478097;28;20033;-72
2021/07/19 01:06:05;;;;;;;10.15;9.15;;;;;;;26.00;62.85;98856.03;3493312;28;20047;-72
2021/07/19 01:07:47;;;;;;;14.03;9.33;;;;;;;25.99;63.11;98854.41;3480044;28;20025;-73
2021/07/19 01:09:29;;;;;;;14.77;9.70;;;;;;;26.01;63.11;98856.84;3493622;28;20041;-73
2021/07/19 01:11:13;;;;;;;14.07;9.27;;;;;;;26.01;62.90;98852.16;3493962;28;20592;-73
2021/07/19 01:12:56;;;;;;;12.98;10.02;;;;;;;25.98;63.56;98858.28;3493540;28;20044;-73
2021/07/19 01:14:41;;;;;;;17.77;11.13;;;;;;;25.94;63.33;98857.28;3494334;28;20040;-72
2021/07/19 01:16:22;;;;;;;12.37;9.47;;;;;;;25.90;63.50;98856.31;3493589;28;20819;-72
2021/07/19 01:18:05;;;;;;;12.68;9.43;;;;;;;25.88;63.47;98855.81;3494128;28;20408;-72
2021/07/19 01:19:49;;;;;;;14.05;9.38;;;;;;;25.90;63.70;98853.59;3493869;28;20115;-72
2021/07/19 01:21:43;;;;;;;15.25;10.10;;;;;;;25.91;63.46;98860.66;3480296;28;20044;-72
2021/07/19 01:23:44;;;;;;;11.60;8.77;;;;;;;25.92;63.03;98858.72;3494501;28;20048;-72
2021/07/19 01:25:35;;;;;;;14.43;9.05;;;;;;;25.93;62.89;98861.16;3496082;28;20120;-72
2021/07/19 01:27:47;;;;;;;13.80;9.65;;;;;;;25.96;62.95;98859.72;3496540;28;20076;-72
2021/07/19 01:29:28;;;;;;;14.70;9.25;;;;;;;25.92;63.30;98858.72;3496200;28;20040;-72
2021/07/19 01:31:24;;;;;;;14.00;9.40;;;;;;;25.93;63.18;98858.41;3479777;28;20403;-74
2021/07/19 01:33:06;;;;;;;12.27;9.77;;;;;;;25.91;63.06;98859.84;3480853;28;20139;-71
2021/07/19 01:34:47;;;;;;;11.77;9.45;;;;;;;25.88;63.58;98853.09;3490807;28;20430;-71
2021/07/19 01:36:33;;;;;;;11.98;8.63;;;;;;;25.89;63.39;98849.22;3493308;28;20477;-72
2021/07/19 01:38:43;;;;;;;13.32;9.35;;;;;;;25.88;63.72;98842.97;3488345;28;20137;-72
2021/07/19 01:40:24;;;;;;;13.90;9.77;;;;;;;25.88;63.28;98850.38;3481455;28;20439;-71
2021/07/19 01:42:06;;;;;;;12.98;9.15;;;;;;;25.90;63.01;98853.59;3479471;28;20033;-72
2021/07/19 01:43:47;;;;;;;13.02;9.07;;;;;;;25.91;63.03;98852.47;3490961;28;20063;-72
2021/07/19 01:45:31;;;;;;;12.57;9.20;;;;;;;25.95;63.36;98856.19;3479457;28;20118;-72
2021/07/19 01:47:14;;;;;;;13.07;8.77;;;;;;;25.95;63.23;98847.97;3506108;28;20491;-72
2021/07/19 01:48:58;;;;;;;14.75;9.32;;;;;;;25.96;63.55;98848.78;3495833;28;20454;-72
2021/07/19 01:50:41;;;;;;;11.57;8.55;;;;;;;25.95;63.13;98847.97;3479631;28;20401;-72
2021/07/19 01:52:30;;;;;;;11.10;8.40;;;;;;;25.95;63.16;98845.25;3481881;28;20574;-72
2021/07/19 01:54:13;;;;;;;9.73;7.90;;;;;;;25.98;63.18;98846.53;3480703;28;20041;-71
2021/07/19 01:55:56;;;;;;;11.85;8.48;;;;;;;26.02;62.82;98845.59;3477301;28;20032;-71
2021/07/19 01:57:40;;;;;;;12.93;8.85;;;;;;;26.02;62.72;98848.34;3478060;28;20131;-71
2021/07/19 01:59:25;;;;;;;13.38;8.77;;;;;;;26.04;62.78;98851.53;3477683;28;20466;-72
2021/07/19 02:01:30;;;;;;;11.98;8.82;;;;;;;26.05;62.88;98850.44;3496369;28;20040;-73
2021/07/19 02:03:13;;;;;;;13.55;9.32;;;;;;;26.06;62.90;98848.50;3482115;28;20400;-72
2021/07/19 02:04:58;;;;;;;13.05;8.93;;;;;;;26.04;63.08;98848.78;3491680;28;20040;-72
2021/07/19 02:06:43;;;;;;;13.50;8.73;;;;;;;26.04;63.38;98848.78;3493687;28;20404;-73
2021/07/19 02:08:25;;;;;;;12.75;9.18;;;;;;;26.03;63.08;98855.38;3481944;28;20255;-73
2021/07/19 02:10:29;;;;;;;15.05;9.25;;;;;;;26.01;62.99;98862.28;3495517;28;20549;-73
2021/07/19 02:12:17;;;;;;;14.68;8.93;;;;;;;26.01;63.29;98854.91;3495793;28;20036;-73
2021/07/19 02:14:07;;;;;;;12.20;8.13;;;;;;;26.03;63.18;98851.88;3493346;28;20495;-74
2021/07/19 02:15:51;;;;;;;10.18;9.07;;;;;;;26.06;62.76;98849.28;3494021;28;20532;-72
2021/07/19 02:17:37;;;;;;;14.65;9.48;;;;;;;26.07;63.15;98864.56;3493651;28;20079;-72
2021/07/19 02:19:18;;;;;;;10.93;8.23;;;;;;;26.09;62.98;98865.03;3493311;28;20060;-72
2021/07/19 02:21:05;;;;;;;11.45;8.25;;;;;;;26.08;63.43;98857.97;3478941;28;20072;-72
2021/07/19 02:22:51;;;;;;;10.98;8.35;;;;;;;26.07;63.16;98861.84;3492615;28;20213;-72
2021/07/19 02:24:50;;;;;;;11.85;8.55;;;;;;;26.13;63.11;98858.97;3510301;28;20046;-72
2021/07/19 02:26:32;;;;;;;12.93;8.32;;;;;;;26.14;62.75;98858.63;3495632;28;20039;-72
2021/07/19 02:28:13;;;;;;;10.23;8.95;;;;;;;26.15;62.84;98862.97;3495625;28;20032;-71
2021/07/19 02:29:57;;;;;;;13.63;8.85;;;;;;;26.15;63.08;98862.16;3479298;28;20130;-72
2021/07/19 02:31:38;;;;;;;11.40;8.80;;;;;;;26.16;63.01;98855.59;3493169;28;20041;-72
2021/07/19 02:33:20;;;;;;;8.88;7.78;;;;;;;26.17;62.88;98854.44;3481723;28;20045;-73
2021/07/19 02:35:05;;;;;;;11.02;8.93;;;;;;;26.19;63.00;98852.22;3479663;28;20500;-72
2021/07/19 02:36:47;;;;;;;11.70;8.60;;;;;;;26.20;63.22;98857.38;3491065;28;20054;-71
2021/07/19 02:38:28;;;;;;;11.48;7.88;;;;;;;26.22;63.02;98857.03;3492791;28;20554;-71
2021/07/19 02:40:20;;;;;;;9.38;7.72;;;;;;;26.25;62.69;98861.84;3493914;28;20044;-72
2021/07/19 02:42:02;;;;;;;11.77;7.70;;;;;;;26.25;62.29;98851.72;3493179;28;20083;-72
2021/07/19 02:43:47;;;;;;;11.88;7.75;;;;;;;26.27;62.64;98854.94;3479468;28;20123;-74
2021/07/19 02:45:35;;;;;;;15.20;8.80;;;;;;;26.28;62.25;98861.22;3491303;28;20075;-73
2021/07/19 02:47:18;;;;;;;11.63;8.02;;;;;;;26.29;62.50;98862.84;3481853;28;20037;-73
2021/07/19 02:49:00;;;;;;;10.05;8.65;;;;;;;26.28;62.13;98856.56;3476612;28;20155;-73
2021/07/19 02:50:43;;;;;;;13.40;8.18;;;;;;;26.28;62.23;98855.75;3476744;28;20139;-72
2021/07/19 02:52:25;;;;;;;11.57;8.40;;;;;;;26.28;62.62;98861.22;3493534;28;20116;-73
2021/07/19 02:54:07;;;;;;;12.13;8.80;;;;;;;26.28;62.63;98861.22;3512023;28;20054;-73
2021/07/19 02:55:49;;;;;;;13.10;8.20;;;;;;;26.27;63.13;98854.16;3499828;28;20040;-73
2021/07/19 02:57:30;;;;;;;19.20;8.95;;;;;;;26.23;62.63;98850.44;3486141;28;20052;-72
2021/07/19 02:59:13;;;;;;;14.32;9.15;;;;;;;26.21;63.06;98849.97;3481053;28;20538;-72
2021/07/19 03:00:55;;;;;;;11.30;7.72;;;;;;;26.17;62.83;98857.19;3494723;28;20044;-73
2021/07/19 03:02:55;;;;;;;;;;;;;;;26.19;62.77;98858.47;3497675;28;20064;-73
2021/07/19 03:04:38;;;;;;;10.15;7.65;;;;;;;26.17;63.20;98854.44;3499965;28;19920;-73
2021/07/19 03:06:28;;;;;;;13.45;8.30;;;;;;;26.16;63.37;98863.78;3483791;28;20045;-73
2021/07/19 03:08:11;;;;;;;12.50;8.27;;;;;;;26.14;62.58;98850.44;3498628;28;20033;-71
2021/07/19 03:10:20;;;;;;;12.73;8.00;;;;;;;26.13;63.47;98854.28;3496773;28;20049;-73
2021/07/19 03:12:03;;;;;;;12.40;8.48;;;;;;;26.11;63.08;98857.34;3485964;28;20442;-73
2021/07/19 03:13:51;;;;;;;10.85;8.18;;;;;;;26.11;63.73;98851.88;3495063;28;20125;-73
2021/07/19 03:15:32;;;;;;;14.90;8.73;;;;;;;26.09;63.17;98858.78;3484203;28;20064;-73
2021/07/19 03:17:14;;;;;;;11.77;8.40;;;;;;;26.09;63.56;98862.31;3483275;28;20037;-72
2021/07/19 03:19:00;;;;;;;12.85;8.85;;;;;;;26.11;63.16;98867.47;3509687;28;20813;-72
2021/07/19 03:20:42;;;;;;;11.32;8.00;;;;;;;26.13;63.11;98864.41;3514624;28;20460;-72
2021/07/19 03:22:24;;;;;;;11.05;7.82;;;;;;;26.14;63.52;98874.22;3499827;28;20495;-72
2021/07/19 03:24:35;;;;;;;11.32;7.75;;;;;;;26.14;63.38;98874.22;3492166;28;20048;-73
2021/07/19 03:26:20;;;;;;;11.52;8.27;;;;;;;26.15;63.45;98868.44;3486168;28;20487;-72
2021/07/19 03:28:05;;;;;;;12.52;8.63;;;;;;;26.13;63.33;98861.69;3484357;28;20143;-72
2021/07/19 03:29:47;;;;;;;12.95;8.38;;;;;;;26.08;63.77;98870.84;3484225;28;20067;-72
2021/07/19 03:31:35;;;;;;;12.70;9.48;;;;;;;26.05;63.90;98875.00;3482744;28;20041;-72
2021/07/19 03:33:17;;;;;;;10.13;7.85;;;;;;;26.03;63.96;98879.97;3481822;28;20502;-71
2021/07/19 03:34:58;;;;;;;;;;;;;;;26.07;63.25;98878.22;3497402;28;20051;-71
2021/07/19 03:36:45;;;;;;;11.45;7.10;;;;;;;26.03;63.46;98882.69;3497536;28;19966;-72
2021/07/19 03:38:27;;;;;;;10.32;7.07;;;;;;;26.04;63.45;98878.84;3483086;28;20048;-71
2021/07/19 03:40:23;;;;;;;8.65;7.13;;;;;;;26.10;63.01;98882.25;3511660;28;20063;-72
2021/07/19 03:42:11;;;;;;;10.98;7.63;;;;;;;26.13;63.48;98884.34;3485752;28;20137;-72
2021/07/19 03:43:58;;;;;;;12.20;7.78;;;;;;;26.14;63.11;98882.41;3482670;28;20045;-72
2021/07/19 03:45:39;;;;;;;10.30;7.53;;;;;;;26.15;63.51;98878.53;3494938;28;20045;-72
2021/07/19 03:47:22;;;;;;;11.82;8.23;;;;;;;26.14;63.46;98879.69;3511705;28;20044;-71
2021/07/19 03:49:06;;;;;;;13.95;7.60;;;;;;;26.15;63.18;98882.09;3485708;28;20690;-72
2021/07/19 03:50:48;;;;;;;11.95;8.30;;;;;;;26.20;63.46;98886.59;3494895;28;20052;-72
2021/07/19 03:52:30;;;;;;;12.85;7.63;;;;;;;26.22;63.25;98895.28;3482994;28;20095;-72
2021/07/19 03:54:11;;;;;;;;;;;;;;;26.25;62.84;98891.91;3483777;28;20037;-73
2021/07/19 03:55:53;;;;;;;8.35;6.65;;;;;;;26.20;63.19;98887.41;3496809;28;19920;-73
2021/07/19 03:57:38;;;;;;;10.27;7.00;;;;;;;26.18;63.45;98894.31;3511746;28;20184;-73
2021/07/19 03:59:20;;;;;;;10.10;8.00;;;;;;;26.16;63.98;98902.03;3499407;28;20114;-73
2021/07/19 04:01:03;;;;;;;17.15;6.97;;;;;;;26.16;63.51;98896.56;3485490;28;20040;-75
2021/07/19 04:02:48;;;;;;;7.43;6.55;;;;;;;26.19;63.10;98895.91;3508900;28;20075;-75
2021/07/19 04:04:37;;;;;;;9.10;6.80;;;;;;;26.20;62.93;98892.06;3496239;28;20049;-74
2021/07/19 04:06:20;;;;;;;58.90;44.40;;;;;;;26.20;63.51;98887.41;3469584;28;20046;-74
2021/07/19 04:08:09;;;;;;;22.55;15.45;;;;;;;26.20;63.54;98889.31;3481406;28;20118;-75
2021/07/19 04:09:50;;;;;;;16.70;9.82;;;;;;;26.22;63.18;98895.28;3507209;28;20050;-72
2021/07/19 04:11:31;;;;;;;13.10;8.25;;;;;;;26.24;63.04;98898.50;3483425;28;20589;-75
2021/07/19 04:13:17;;;;;;;13.63;8.20;;;;;;;26.26;62.98;98893.53;3481977;28;20106;-73
2021/07/19 04:15:01;;;;;;;15.60;9.13;;;;;;;26.29;63.39;98887.44;3483637;28;20041;-73
2021/07/19 04:16:42;;;;;;;23.08;10.35;;;;;;;26.35;65.17;98880.69;3493315;28;20056;-73
2021/07/19 04:18:23;;;;;;;19.88;10.52;;;;;;;26.38;66.55;98876.50;3495051;28;20048;-75
2021/07/19 04:20:09;;;;;;;19.08;9.70;;;;;;;26.39;66.52;98878.13;3510082;28;20032;-76
2021/07/19 04:21:52;;;;;;;16.08;8.60;;;;;;;26.43;66.42;98884.53;3491521;28;20041;-77
2021/07/19 04:23:40;;;;;;;20.75;9.05;;;;;;;26.45;66.45;98880.38;3498762;28;20041;-72
2021/07/19 04:25:32;;;;;;;14.85;9.15;;;;;;;26.48;65.89;98874.25;3524964;28;20047;-74
2021/07/19 04:27:14;;;;;;;;;;;;;;;26.56;65.61;98877.34;3499940;28;20100;-73
2021/07/19 04:29:00;;;;;;;13.38;8.20;;;;;;;26.44;64.93;98880.72;3509524;28;19962;-78
2021/07/19 04:30:41;;;;;;;14.15;7.97;;;;;;;26.35;64.59;98883.41;3482942;28;20037;-76
2021/07/19 04:32:23;;;;;;;;;;;;;;;26.34;64.58;98890.00;3480828;28;20045;-76
2021/07/19 04:34:09;;;;;;;11.18;7.47;;;;;;;26.17;64.85;98879.03;3492854;28;19921;-77
2021/07/19 04:35:56;;;;;;;9.65;7.20;;;;;;;26.05;64.91;98885.13;3496957;28;20051;-77
2021/07/19 04:37:38;;;;;;;13.27;8.33;;;;;;;25.96;64.89;98882.34;3494208;28;20532;-78
2021/07/19 04:39:19;;;;;;;13.82;8.55;;;;;;;25.91;65.04;98884.44;3494525;28;20051;-77
2021/07/19 04:41:01;;;;;;;10.02;6.97;;;;;;;25.87;64.92;98882.34;3494330;28;20591;-77
2021/07/19 04:42:43;;;;;;;10.43;7.47;;;;;;;25.87;65.03;98879.59;3509328;28;20553;-78
2021/07/19 04:44:24;;;;;;;10.03;7.57;;;;;;;25.88;65.01;98880.41;3511936;28;20043;-81
2021/07/19 04:46:04;;;;;;;9.40;7.30;;;;;;;25.87;64.62;98887.00;3511630;28;20105;-77
2021/07/19 04:47:46;;;;;;;11.33;7.20;;;;;;;25.87;64.81;98881.53;3511953;28;20036;-79
2021/07/19 04:49:27;;;;;;;11.10;7.03;;;;;;;25.88;64.60;98891.31;3511877;28;20036;-77
2021/07/19 04:51:10;;;;;;;11.70;7.63;;;;;;;25.90;64.69;98886.34;3512001;28;20091;-75
2021/07/19 04:52:51;;;;;;;19.50;14.00;;;;;;;25.90;65.06;98883.63;3493925;28;20067;-75
2021/07/19 04:54:37;;;;;;;14.55;11.02;;;;;;;25.91;64.69;98887.97;3490671;28;20036;-77
2021/07/19 04:56:19;;;;;;;14.48;10.50;;;;;;;25.96;64.36;98887.00;3510961;28;20070;-76
2021/07/19 04:58:00;;;;;;;14.68;9.77;;;;;;;25.99;64.82;98876.25;3511365;28;20040;-76
2021/07/19 04:59:47;;;;;;;14.43;9.35;;;;;;;26.07;64.59;98877.41;3496819;28;20135;-77
2021/07/19 05:01:29;;;;;;;9.93;8.70;;;;;;;26.16;64.17;98882.91;3483644;28;20056;-76
2021/07/19 05:03:10;;;;;;;12.55;8.23;;;;;;;26.21;64.32;98882.75;3506797;28;20047;-78
2021/07/19 05:04:52;;;;;;;15.18;9.27;;;;;;;26.26;64.60;98875.22;3483463;28;20085;-79
2021/07/19 05:06:33;;;;;;;9.27;8.10;;;;;;;26.30;64.16;98881.63;3491865;28;20135;-78
2021/07/19 05:08:19;;;;;;;14.00;8.80;;;;;;;26.35;64.44;98879.88;3507115;28;20457;-76
2021/07/19 05:10:01;;;;;;;12.88;8.95;;;;;;;26.37;64.18;98885.84;3495376;28;20055;-76
2021/07/19 05:11:42;;;;;;;13.20;8.55;;;;;;;26.38;64.23;98890.97;3508558;28;20418;-77
2021/07/19 05:13:27;;;;;;;14.25;8.60;;;;;;;26.41;64.38;98890.34;3491117;28;20476;-76
2021/07/19 05:15:09;;;;;;;11.93;8.38;;;;;;;26.42;63.73;98891.94;3506689;28;20079;-76
2021/07/19 05:16:51;;;;;;;13.73;7.97;;;;;;;26.45;64.16;98896.78;3496043;28;20048;-77
2021/07/19 05:18:33;;;;;;;10.65;7.65;;;;;;;26.49;63.58;98894.22;3496100;28;20045;-76
2021/07/19 05:20:16;;;;;;;14.00;9.20;;;;;;;26.54;63.73;98888.63;3493627;28;20499;-76
2021/07/19 05:21:57;;;;;;;12.80;7.93;;;;;;;26.53;63.69;98885.06;3500929;28;20119;-77
2021/07/19 05:23:38;;;;;;;12.65;9.05;;;;;;;26.54;64.01;98888.63;3510792;28;20513;-76
2021/07/19 05:25:24;;;;;;;10.25;8.10;;;;;;;26.56;63.93;98883.63;3482375;28;20049;-78
2021/07/19 05:27:09;;;;;;;15.98;9.23;;;;;;;26.59;63.68;98893.13;3507475;28;20040;-75
2021/07/19 05:28:50;;;;;;;12.73;8.45;;;;;;;26.63;63.62;98888.63;3510967;28;20048;-77
2021/07/19 05:30:31;;;;;;;11.40;7.80;;;;;;;26.65;63.66;98881.72;3510806;28;20059;-76
2021/07/19 05:32:12;;;;;;;12.02;7.97;;;;;;;26.69;63.72;98881.88;3496139;28;20515;-74
2021/07/19 05:33:53;;;;;;;11.73;7.43;;;;;;;26.76;63.10;98884.94;3507893;28;20040;-74
2021/07/19 05:35:34;;;;;;;19.07;9.07;;;;;;;26.83;63.41;98890.72;3511066;28;20048;-73
2021/07/19 05:37:15;;;;;;;;;;;;;;;26.94;62.78;98896.66;3511605;28;20040;-76
2021/07/19 05:38:55;;;;;;;23.52;9.93;;;;;;;26.93;63.19;98887.66;3510423;28;19912;-76
2021/07/19 05:40:37;;;;;;;17.57;8.83;;;;;;;26.93;63.16;98884.94;3511002;28;20044;-77
2021/07/19 05:42:18;;;;;;;17.95;9.52;;;;;;;26.98;62.94;98889.44;3511688;28;20051;-77
2021/07/19 05:43:59;;;;;;;16.63;8.27;;;;;;;27.03;62.69;98888.44;3495751;28;20048;-79
2021/07/19 05:45:40;;;;;;;16.27;8.97;;;;;;;27.09;62.72;98898.91;3507773;28;20510;-77
2021/07/19 05:47:20;;;;;;;15.40;9.00;;;;;;;27.15;62.03;98894.88;3495803;28;20046;-73
2021/07/19 05:49:01;;;;;;;10.83;7.97;;;;;;;27.19;61.71;98886.88;3507846;28;20040;-74
2021/07/19 05:50:42;;;;;;;11.43;8.37;;;;;;;27.20;62.09;98891.19;3510584;28;20101;-76
2021/07/19 05:52:22;;;;;;;13.77;9.27;;;;;;;27.23;61.85;98896.00;3513736;28;20039;-85
2021/07/19 05:54:03;;;;;;;14.43;8.43;;;;;;;27.24;61.54;98892.16;3493205;28;20045;-86
2021/07/19 05:55:44;;;;;;;17.50;8.27;;;;;;;27.24;61.34;98892.16;3503702;28;20103;-86
2021/07/19 05:57:26;;;;;;;11.35;8.18;;;;;;;27.28;61.21;98898.56;3492737;28;20284;-84
2021/07/19 05:59:07;;;;;;;9.63;7.45;;;;;;;27.38;60.96;98886.50;3519516;28;20055;-85
2021/07/19 06:00:48;;;;;;;11.93;7.43;;;;;;;27.46;61.09;98887.59;3480213;28;20041;-87
2021/07/19 06:02:29;;;;;;;8.90;6.68;;;;;;;27.49;60.90;98881.47;3503597;28;20048;-86
2021/07/19 06:04:10;;;;;;;15.43;7.77;;;;;;;27.56;60.40;98888.03;3521216;28;20048;-85
2021/07/19 06:05:50;;;;;;;13.57;7.97;;;;;;;27.57;60.49;98895.16;3524195;28;20055;-87
2021/07/19 06:07:32;;;;;;;12.30;8.10;;;;;;;27.58;60.34;98891.25;3495657;28;20036;-87
2021/07/19 06:09:12;;;;;;;11.82;7.47;;;;;;;27.65;60.03;98892.69;3519281;28;20090;-87
2021/07/19 06:10:53;;;;;;;11.93;8.53;;;;;;;27.65;60.19;98879.81;3523535;28;20445;-86
2021/07/19 06:12:34;;;;;;;10.07;8.10;;;;;;;27.71;60.13;98886.72;3508280;28;20155;-85
2021/07/19 06:14:15;;;;;;;12.02;8.65;;;;;;;27.72;60.16;98896.53;3518275;28;20092;-86
2021/07/19 06:15:56;;;;;;;10.90;8.53;;;;;;;27.72;59.90;98891.03;3493107;28;20048;-85
2021/07/19 06:17:38;;;;;;;14.87;9.57;;;;;;;27.75;60.21;98890.41;3500594;28;20089;-85
2021/07/19 06:19:18;;;;;;;13.38;9.48;;;;;;;27.84;60.14;98902.16;3504831;28;20051;-88
2021/07/19 06:20:59;;;;;;;13.48;8.80;;;;;;;27.89;59.78;98897.63;3519710;28;20131;-88
2021/07/19 06:22:42;;;;;;;16.75;9.00;;;;;;;27.94;60.02;98897.44;3508256;28;20620;-86
2021/07/19 06:24:23;;;;;;;14.45;7.78;;;;;;;27.95;59.67;98896.31;3504208;28;20039;-85
2021/07/19 06:26:04;;;;;;;22.13;8.70;;;;;;;28.03;59.18;98900.94;3477585;28;20440;-87
2021/07/19 06:27:45;;;;;;;14.93;8.47;;;;;;;28.10;59.25;98898.47;3487102;28;20059;-86
2021/07/19 06:29:26;;;;;;;13.95;8.23;;;;;;;28.23;59.10;98899.38;3486645;28;20284;-85
2021/07/19 06:31:07;;;;;;;13.90;8.60;;;;;;;28.36;58.43;98900.28;3515867;28;20050;-87
2021/07/19 06:32:47;;;;;;;10.35;7.70;;;;;;;28.53;58.04;98902.16;3509242;28;20041;-87
2021/07/19 06:34:29;;;;;;;11.70;8.50;;;;;;;28.74;57.96;98899.41;3516055;28;20038;-87
2021/07/19 06:36:10;;;;;;;13.35;8.10;;;;;;;28.92;57.35;98900.88;3520081;28;20035;-84
2021/07/19 06:37:51;;;;;;;13.23;8.50;;;;;;;29.11;56.68;98901.19;3521150;28;20060;-86
2021/07/19 06:39:32;;;;;;;11.88;7.93;;;;;;;29.25;56.43;98900.09;3520406;28;20411;-86
2021/07/19 06:41:13;;;;;;;8.10;7.30;;;;;;;29.33;56.00;98899.22;3492986;28;20041;-86
2021/07/19 06:42:53;;;;;;;11.20;7.65;;;;;;;29.40;55.73;98902.19;3502083;28;20048;-87
2021/07/19 06:44:34;;;;;;;10.77;7.83;;;;;;;29.49;55.69;98905.66;3518731;28;20032;-86
2021/07/19 06:46:15;;;;;;;9.43;7.57;;;;;;;29.51;55.35;98908.06;3504453;28;20052;-85
2021/07/19 06:47:55;;;;;;;13.07;8.20;;;;;;;29.47;55.44;98907.94;3516534;28;20042;-86
2021/07/19 06:49:36;;;;;;;10.83;8.63;;;;;;;29.40;55.52;98906.88;3516997;28;20043;-85
2021/07/19 06:51:17;;;;;;;9.33;7.37;;;;;;;29.34;55.66;98900.81;3521535;28;20582;-85
2021/07/19 06:52:58;;;;;;;14.52;8.60;;;;;;;29.30;55.52;98919.09;3503367;28;20047;-84
2021/07/19 06:54:39;;;;;;;14.43;8.70;;;;;;;29.21;55.48;98912.91;3501400;28;20044;-84
2021/07/19 06:56:20;;;;;;;13.98;8.82;;;;;;;29.12;55.89;98908.28;3503723;28;20560;-85
2021/07/19 06:58:01;;;;;;;15.40;8.95;;;;;;;29.04;55.76;98911.91;3502440;28;20090;-85
2021/07/19 06:59:41;;;;;;;15.10;8.33;;;;;;;28.94;56.20;98906.81;3516389;28;20048;-85
2021/07/19 07:01:22;;;;;;;11.90;7.85;;;;;;;28.85;56.50;98911.56;3518754;28;20028;-89
2021/07/19 07:03:03;;;;;;;12.60;8.67;;;;;;;28.78;56.75;98914.84;3521291;28;20055;-86
2021/07/19 07:04:44;;;;;;;11.02;8.10;;;;;;;28.73;56.72;98919.72;3522406;28;20043;-85
2021/07/19 07:06:25;;;;;;;12.27;8.23;;;;;;;28.67;56.81;98924.59;3508431;28;20543;-88
2021/07/19 07:08:06;;;;;;;11.32;8.90;;;;;;;28.63;56.84;98923.66;3522604;28;20028;-84
2021/07/19 07:09:48;;;;;;;16.30;7.93;;;;;;;28.67;57.20;98919.91;3522431;28;20146;-86
2021/07/19 07:11:29;;;;;;;13.70;7.95;;;;;;;28.74;57.08;98924.09;3560066;22;20053;-85
2021/07/19 07:13:18;;;;;;;13.23;8.77;;;;;;;28.90;56.72;98927.81;3620518;22;20122;31
2021/07/19 07:15:00;;;;;;;16.80;8.35;;;;;;;28.97;56.55;98917.13;3511064;22;20033;-85
2021/07/19 07:16:41;;;;;;;14.43;8.02;;;;;;;29.08;56.49;98923.81;3493952;28;20101;-87
2021/07/19 07:18:22;;;;;;;11.07;8.32;;;;;;;29.16;56.08;98918.59;3497086;28;20070;-86
2021/07/19 07:20:03;;;;;;;18.23;9.57;;;;;;;29.23;55.94;98924.34;3493607;28;20112;-84
2021/07/19 07:21:44;;;;;;;15.80;8.52;;;;;;;29.27;55.38;98922.50;3494970;28;20040;-87
2021/07/19 07:23:25;;;;;;;13.02;8.23;;;;;;;29.37;55.66;98927.59;3491736;28;20040;-84
2021/07/19 07:25:06;;;;;;;12.60;8.15;;;;;;;29.49;55.37;98933.13;3476608;28;20046;-86
2021/07/19 07:26:47;;;;;;;20.25;9.27;;;;;;;29.64;55.28;98928.94;3492479;28;20037;-85
2021/07/19 07:28:28;;;;;;;14.77;7.97;;;;;;;29.73;55.15;98926.91;3494798;28;20051;-85
2021/07/19 07:30:12;;;;;;;12.33;8.40;;;;;;;29.81;54.82;98929.88;3497148;28;20093;-85
2021/07/19 07:34:05;;;;;;;15.05;8.77;;;;;;;29.78;54.37;98910.19;3266504;26;20103;-86
2021/07/19 07:35:46;;;;;;;14.80;8.05;;;;;;;29.81;54.04;98921.66;3389451;28;20116;-86
2021/07/19 07:37:27;;;;;;;22.27;9.90;;;;;;;29.78;54.17;98923.13;3407689;29;20071;-85
2021/07/19 07:39:08;;;;;;;14.80;10.13;;;;;;;29.70;54.37;98913.06;3385499;29;20049;-87
2021/07/19 07:45:20;;;;;;;13.43;8.68;;;;;;;29.97;53.83;98914.31;3606087;23;20052;-86
2021/07/19 07:47:03;;;;;;;15.90;8.48;;;;;;;30.17;53.52;98920.84;3416925;28;20384;-86
2021/07/19 07:48:43;;;;;;;15.43;8.80;;;;;;;30.27;53.24;98909.44;3418223;28;20047;-86
2021/07/19 07:55:10;;;;;;;10.77;8.15;;;;;;;30.50;52.20;98917.19;3666159;23;20122;-88
2021/07/19 08:15:33;;;;;;;11.87;7.37;;;;;;;32.18;48.50;98896.22;4185174;23;20542;31
2021/07/19 08:17:15;;;;;;;9.57;7.75;;;;;;;32.37;47.91;98893.47;3405354;29;20043;-89
2021/07/19 08:37:19;;;;;;;12.57;8.00;;;;;;;33.90;43.78;98886.66;3216610;23;20059;-90
2021/07/19 08:43:31;;;;;;;9.02;7.80;;;;;;;34.19;42.65;98884.34;2636698;23;20335;-88
2021/07/19 08:47:23;;;;;;;16.95;8.20;;;;;;;34.56;41.98;98878.13;3899959;23;20043;-86
2021/07/19 08:49:07;;;;;;;10.88;7.47;;;;;;;34.63;41.79;98867.97;3454080;23;20055;-90
2021/07/19 08:52:54;;;;;;;11.23;7.40;;;;;;;34.94;40.96;98864.00;3564069;23;20059;-88
2021/07/19 08:54:37;;;;;;;9.95;8.38;;;;;;;34.94;40.56;98874.28;3415401;29;20047;-87
2021/07/19 08:56:18;;;;;;;10.90;7.47;;;;;;;34.92;40.15;98876.63;3416513;29;20032;-87
2021/07/19 08:58:00;;;;;;;9.30;7.18;;;;;;;34.89;39.78;98869.09;3535686;23;20154;-87
2021/07/19 08:59:41;;;;;;;8.23;7.30;;;;;;;34.89;39.76;98875.41;3441329;23;20074;-85